Time;durP1;ratioP1;P1;durP2;ratioP2;P2;SDS_P1;SDS_P2;PMS_P1;PMS_P2;Temp;Humidity;BMP_temperature;BMP_pressure;BME280_temperature;BME280_humidity;BME280_pressure;Samples;Min_cycle;Max_cycle;Signal;HPM_P1;HPM_P2
2021/03/14 00:00:47;;;;;;;19.87;3.17;;;;;;;;;;6376837;22;20008;-78
2021/03/14 00:03:15;;;;;;;26.27;4.10;;;;;;;;;;6377265;22;20013;-79
2021/03/14 00:05:41;;;;;;;27.90;4.03;;;;;;;;;;6377260;22;20441;-78
2021/03/14 00:08:11;;;;;;;34.90;3.93;;;;;;;;;;6376937;22;20009;-79
2021/03/14 00:10:38;;;;;;;27.87;4.27;;;;;;;;;;6378339;22;20024;-79
2021/03/14 00:13:05;;;;;;;27.43;3.93;;;;;;;;;;6380373;22;20038;-79
2021/03/14 00:15:31;;;;;;;28.13;5.00;;;;;;;;;;6352427;22;20409;-78
2021/03/14 00:17:57;;;;;;;24.87;3.07;;;;;;;;;;6378562;22;20006;-78
2021/03/14 00:20:23;;;;;;;25.40;3.30;;;;;;;;;;6380184;22;20032;-77
2021/03/14 00:22:49;;;;;;;23.40;4.30;;;;;;;;;;6384544;22;20002;-77
2021/03/14 00:25:16;;;;;;;23.17;4.33;;;;;;;;;;6380472;22;20097;-78
2021/03/14 00:27:44;;;;;;;26.53;4.17;;;;;;;;;;6355954;22;20096;-78
2021/03/14 00:30:11;;;;;;;29.60;4.50;;;;;;;;;;6370794;22;20014;-79
2021/03/14 00:32:37;;;;;;;29.57;5.03;;;;;;;;;;6342271;22;20022;-78
2021/03/14 00:35:03;;;;;;;23.37;4.10;;;;;;;;;;6343875;22;20015;-78
2021/03/14 00:37:29;;;;;;;24.00;4.50;;;;;;;;;;6368373;22;20080;-79
2021/03/14 00:39:55;;;;;;;27.83;4.13;;;;;;;;;;6343071;22;20428;-79
2021/03/14 00:42:21;;;;;;;20.83;3.57;;;;;;;;;;6343005;22;19999;-77
2021/03/14 00:44:47;;;;;;;29.30;3.77;;;;;;;;;;6342238;22;20420;-80
2021/03/14 00:47:13;;;;;;;25.97;3.63;;;;;;;;;;6342148;22;20080;-78
2021/03/14 00:49:39;;;;;;;25.90;4.90;;;;;;;;;;6342492;22;20010;-79
2021/03/14 00:52:05;;;;;;;27.27;4.90;;;;;;;;;;6343702;22;20029;-79
2021/03/14 00:54:33;;;;;;;29.53;4.43;;;;;;;;;;6370141;22;20057;-79
2021/03/14 00:56:59;;;;;;;27.47;4.60;;;;;;;;;;6349667;22;20021;-77
2021/03/14 00:59:25;;;;;;;23.23;3.20;;;;;;;;;;6348210;22;20090;-77
2021/03/14 01:01:51;;;;;;;24.20;4.50;;;;;;;;;;6347819;22;20420;-78
2021/03/14 01:04:17;;;;;;;27.07;4.20;;;;;;;;;;6347858;22;20053;-79
2021/03/14 01:06:43;;;;;;;19.60;3.23;;;;;;;;;;6371118;22;20006;-79
2021/03/14 01:09:09;;;;;;;28.53;4.80;;;;;;;;;;6345855;22;20010;-79
2021/03/14 01:11:35;;;;;;;27.90;4.07;;;;;;;;;;6345782;22;20010;-79
2021/03/14 01:14:01;;;;;;;29.70;5.33;;;;;;;;;;6346995;22;20007;-79
2021/03/14 01:16:27;;;;;;;29.13;3.23;;;;;;;;;;6374259;22;20029;-79
2021/03/14 01:18:53;;;;;;;27.90;4.10;;;;;;;;;;6347845;22;20010;-78
2021/03/14 01:21:19;;;;;;;30.63;4.60;;;;;;;;;;6373990;22;20018;-79
2021/03/14 01:23:45;;;;;;;26.43;4.20;;;;;;;;;;6349506;22;20018;-78
2021/03/14 01:26:11;;;;;;;27.57;3.87;;;;;;;;;;6351313;22;20010;-79
2021/03/14 01:28:37;;;;;;;23.63;5.17;;;;;;;;;;6381167;22;20026;-78
2021/03/14 01:31:03;;;;;;;25.20;3.83;;;;;;;;;;6357305;22;20014;-77
2021/03/14 01:33:30;;;;;;;26.37;3.63;;;;;;;;;;6356006;22;20056;-77
2021/03/14 01:35:56;;;;;;;27.57;4.60;;;;;;;;;;6383012;22;20007;-78
2021/03/14 01:38:22;;;;;;;31.33;6.23;;;;;;;;;;6387309;22;20052;-79
2021/03/14 01:40:48;;;;;;;30.30;3.70;;;;;;;;;;6351671;22;20301;-78
2021/03/14 01:43:14;;;;;;;20.60;3.47;;;;;;;;;;6379172;22;20108;-80
2021/03/14 01:45:40;;;;;;;34.23;5.30;;;;;;;;;;6353951;22;20010;-78
2021/03/14 01:48:07;;;;;;;32.67;4.77;;;;;;;;;;6381352;22;20417;-78
2021/03/14 01:50:34;;;;;;;17.30;3.67;;;;;;;;;;6353376;22;20003;-78
2021/03/14 01:53:00;;;;;;;26.47;4.93;;;;;;;;;;6379867;22;20005;-77
2021/03/14 01:55:27;;;;;;;23.80;4.47;;;;;;;;;;6380913;22;20319;-78
2021/03/14 01:57:53;;;;;;;21.10;4.17;;;;;;;;;;6382815;22;19994;-78
2021/03/14 02:00:20;;;;;;;23.13;4.73;;;;;;;;;;6383456;22;20093;-79
2021/03/14 02:02:47;;;;;;;23.80;3.60;;;;;;;;;;6381037;22;20006;-79
2021/03/14 02:05:14;;;;;;;28.37;4.10;;;;;;;;;;6354240;22;20420;-79
2021/03/14 02:07:41;;;;;;;26.17;3.83;;;;;;;;;;6379081;22;20014;-78
2021/03/14 02:10:08;;;;;;;26.33;3.30;;;;;;;;;;6379067;22;20391;-78
2021/03/14 02:12:41;;;;;;;27.47;4.07;;;;;;;;;;6386280;22;20026;-78
2021/03/14 02:15:08;;;;;;;30.63;4.93;;;;;;;;;;6386735;22;20014;-78
2021/03/14 02:17:36;;;;;;;29.00;4.07;;;;;;;;;;6380422;22;20016;-77
2021/03/14 02:20:08;;;;;;;20.23;4.07;;;;;;;;;;6380879;22;20009;-78
2021/03/14 02:22:35;;;;;;;20.97;3.37;;;;;;;;;;6381240;22;20060;-79
2021/03/14 02:25:06;;;;;;;22.97;3.40;;;;;;;;;;6356479;22;20014;-77
2021/03/14 02:27:32;;;;;;;27.13;4.23;;;;;;;;;;6381749;22;20002;-78
2021/03/14 02:29:58;;;;;;;24.50;3.97;;;;;;;;;;6380189;22;20053;-78
2021/03/14 02:32:24;;;;;;;23.03;3.70;;;;;;;;;;6377779;22;20066;-79
2021/03/14 02:34:54;;;;;;;29.63;3.90;;;;;;;;;;6375529;22;20068;-79
2021/03/14 02:37:21;;;;;;;25.53;4.90;;;;;;;;;;6377102;22;20365;-79
2021/03/14 02:39:47;;;;;;;26.53;3.83;;;;;;;;;;6377541;22;20062;-78
2021/03/14 02:42:14;;;;;;;37.80;6.80;;;;;;;;;;6378562;22;20006;-78
2021/03/14 02:44:42;;;;;;;17.03;2.97;;;;;;;;;;6352720;22;20006;-78
2021/03/14 02:47:08;;;;;;;31.33;3.97;;;;;;;;;;6385414;22;20070;-79
2021/03/14 02:49:38;;;;;;;24.50;4.00;;;;;;;;;;6353056;22;20003;-79
2021/03/14 02:52:05;;;;;;;27.63;4.27;;;;;;;;;;6346805;22;20018;-79
2021/03/14 02:54:32;;;;;;;26.07;3.77;;;;;;;;;;6346292;22;20018;-79
2021/03/14 02:56:58;;;;;;;26.40;4.50;;;;;;;;;;6347154;22;20465;-79
2021/03/14 02:59:24;;;;;;;28.93;3.63;;;;;;;;;;6346671;22;20017;-79
2021/03/14 03:01:51;;;;;;;38.23;3.97;;;;;;;;;;6373655;22;20006;-79
2021/03/14 03:04:18;;;;;;;31.00;3.60;;;;;;;;;;6347690;22;20069;-79
2021/03/14 03:06:44;;;;;;;28.33;3.90;;;;;;;;;;6373196;22;19998;-79
2021/03/14 03:09:11;;;;;;;25.97;4.17;;;;;;;;;;6374971;22;20005;-79
2021/03/14 03:11:38;;;;;;;24.40;3.10;;;;;;;;;;6373386;22;20013;-79
2021/03/14 03:14:05;;;;;;;20.63;2.83;;;;;;;;;;6348449;22;20018;-78
2021/03/14 03:16:31;;;;;;;26.20;3.40;;;;;;;;;;6373771;22;20101;-79
2021/03/14 03:18:57;;;;;;;26.43;3.40;;;;;;;;;;6347352;22;20002;-78
2021/03/14 03:21:25;;;;;;;25.40;3.70;;;;;;;;;;6374443;22;20007;-78
2021/03/14 03:23:51;;;;;;;28.13;3.83;;;;;;;;;;6373794;22;20007;-79
2021/03/14 03:26:18;;;;;;;30.53;5.00;;;;;;;;;;6346127;22;20119;-79
2021/03/14 03:28:44;;;;;;;22.07;3.20;;;;;;;;;;6346240;22;20019;-78
2021/03/14 03:31:10;;;;;;;25.63;3.43;;;;;;;;;;6346472;22;20075;-78
2021/03/14 03:33:37;;;;;;;32.87;4.13;;;;;;;;;;6350528;22;20014;-78
2021/03/14 03:36:03;;;;;;;21.83;3.10;;;;;;;;;;6377625;22;20435;-77
2021/03/14 03:38:31;;;;;;;24.57;4.27;;;;;;;;;;6353329;22;20002;-78
2021/03/14 03:40:57;;;;;;;24.10;3.50;;;;;;;;;;6381909;22;20409;-78
2021/03/14 03:43:34;;;;;;;21.37;3.70;;;;;;;;;;6375304;22;20006;-78
2021/03/14 03:46:01;;;;;;;19.50;3.43;;;;;;;;;;6375428;22;20374;-79
2021/03/14 03:48:40;;;;;;;16.20;2.50;;;;;;;;;;6374889;22;20007;-79
2021/03/14 03:51:07;;;;;;;23.03;3.73;;;;;;;;;;6377782;22;20022;-78
2021/03/14 03:53:34;;;;;;;27.03;4.40;;;;;;;;;;6376568;22;20016;-78
2021/03/14 03:56:00;;;;;;;33.53;4.77;;;;;;;;;;6380168;22;20045;-77
2021/03/14 03:58:26;;;;;;;23.33;4.00;;;;;;;;;;6382738;22;20017;-78
2021/03/14 04:00:53;;;;;;;27.37;4.03;;;;;;;;;;6349084;22;20006;-78
2021/03/14 04:03:20;;;;;;;19.63;1.97;;;;;;;;;;6373462;22;20447;-79
2021/03/14 04:05:47;;;;;;;15.90;3.63;;;;;;;;;;6374967;22;20037;-77
2021/03/14 04:08:13;;;;;;;16.60;2.80;;;;;;;;;;6375925;22;20002;-78
2021/03/14 04:10:40;;;;;;;18.70;3.30;;;;;;;;;;6376024;22;20005;-77
2021/03/14 04:13:06;;;;;;;22.40;2.77;;;;;;;;;;6375361;22;20007;-78
2021/03/14 04:15:33;;;;;;;20.77;3.47;;;;;;;;;;6351539;22;20005;-78
2021/03/14 04:17:59;;;;;;;14.80;2.50;;;;;;;;;;6377150;22;20021;-77
2021/03/14 04:20:30;;;;;;;14.93;2.40;;;;;;;;;;6378297;22;19995;-78
2021/03/14 04:22:57;;;;;;;19.73;3.03;;;;;;;;;;6379365;22;20006;-78
2021/03/14 04:25:24;;;;;;;20.23;3.63;;;;;;;;;;6381769;22;20026;-78
2021/03/14 04:27:50;;;;;;;20.40;3.57;;;;;;;;;;6382668;22;20066;-78
2021/03/14 04:30:17;;;;;;;24.93;3.83;;;;;;;;;;6385257;22;20025;-77
2021/03/14 04:32:44;;;;;;;20.30;4.17;;;;;;;;;;6385605;22;20005;-77
2021/03/14 04:35:11;;;;;;;18.60;3.00;;;;;;;;;;6384710;22;20360;-78
2021/03/14 04:37:38;;;;;;;20.97;3.23;;;;;;;;;;6381930;22;19998;-78
2021/03/14 04:40:05;;;;;;;24.23;3.57;;;;;;;;;;6380334;22;20029;-77
2021/03/14 04:42:31;;;;;;;19.70;2.50;;;;;;;;;;6383022;22;20029;-77
2021/03/14 04:44:57;;;;;;;27.93;4.30;;;;;;;;;;6356747;22;20006;-78
2021/03/14 04:47:23;;;;;;;21.43;3.30;;;;;;;;;;6375932;22;20079;-78
2021/03/14 04:49:49;;;;;;;19.30;3.60;;;;;;;;;;6371982;22;20432;-78
2021/03/14 04:52:18;;;;;;;17.73;2.80;;;;;;;;;;6383378;22;20006;-78
2021/03/14 04:54:46;;;;;;;21.67;4.17;;;;;;;;;;6382074;22;20075;-77
2021/03/14 04:57:12;;;;;;;19.60;3.10;;;;;;;;;;6383821;22;20005;-77
2021/03/14 04:59:38;;;;;;;24.57;3.47;;;;;;;;;;6382056;22;20013;-78
2021/03/14 05:02:05;;;;;;;19.23;3.40;;;;;;;;;;6380064;22;20062;-78
2021/03/14 05:04:33;;;;;;;26.63;5.90;;;;;;;;;;6356218;22;20039;-78
2021/03/14 05:06:59;;;;;;;33.63;6.77;;;;;;;;;;6384550;22;20026;-78
2021/03/14 05:09:25;;;;;;;21.30;3.40;;;;;;;;;;6385961;22;20003;-78
2021/03/14 05:11:52;;;;;;;22.33;3.60;;;;;;;;;;6355158;22;20005;-78
2021/03/14 05:14:19;;;;;;;27.23;3.63;;;;;;;;;;6385219;22;20002;-77
2021/03/14 05:16:45;;;;;;;24.93;3.07;;;;;;;;;;6357782;22;20017;-77
2021/03/14 05:19:12;;;;;;;20.70;3.30;;;;;;;;;;6386086;22;20006;-77
2021/03/14 05:21:41;;;;;;;18.17;3.17;;;;;;;;;;6387421;22;20009;-78
2021/03/14 05:24:09;;;;;;;22.47;3.10;;;;;;;;;;6386926;22;20036;-78
2021/03/14 05:26:36;;;;;;;26.57;4.90;;;;;;;;;;6386011;22;20003;-78
2021/03/14 05:29:02;;;;;;;25.67;3.90;;;;;;;;;;6361247;22;20021;-78
2021/03/14 05:31:28;;;;;;;18.07;3.60;;;;;;;;;;6384540;22;19999;-79
2021/03/14 05:33:56;;;;;;;25.73;4.53;;;;;;;;;;6385188;22;20026;-77
2021/03/14 05:36:22;;;;;;;21.17;4.13;;;;;;;;;;6384622;22;20002;-77
2021/03/14 05:38:48;;;;;;;20.07;3.87;;;;;;;;;;6381123;22;20081;-79
2021/03/14 05:41:14;;;;;;;31.43;4.10;;;;;;;;;;6348282;22;20006;-77
2021/03/14 05:43:42;;;;;;;22.03;3.97;;;;;;;;;;6375342;22;20431;-78
2021/03/14 05:46:09;;;;;;;25.27;3.67;;;;;;;;;;6376484;22;20002;-79
2021/03/14 05:48:35;;;;;;;33.13;4.87;;;;;;;;;;6346293;22;20021;-79
2021/03/14 05:51:01;;;;;;;31.03;4.73;;;;;;;;;;6348067;22;20153;-77
2021/03/14 05:53:27;;;;;;;25.53;3.47;;;;;;;;;;6346934;22;20019;-78
2021/03/14 05:55:53;;;;;;;26.23;5.60;;;;;;;;;;6351346;22;20009;-78
2021/03/14 05:58:19;;;;;;;22.30;5.07;;;;;;;;;;6348877;22;20006;-77
2021/03/14 06:00:46;;;;;;;33.17;5.57;;;;;;;;;;6348674;22;20041;-77
2021/03/14 06:03:12;;;;;;;23.53;4.30;;;;;;;;;;6352300;22;20010;-77
2021/03/14 06:05:40;;;;;;;24.27;4.93;;;;;;;;;;6373492;22;20062;-78
2021/03/14 06:08:06;;;;;;;27.73;3.57;;;;;;;;;;6373917;22;20001;-78
2021/03/14 06:10:33;;;;;;;28.23;4.87;;;;;;;;;;6347173;22;20034;-78
2021/03/14 06:12:59;;;;;;;21.10;4.47;;;;;;;;;;6347594;22;20066;-77
2021/03/14 06:15:25;;;;;;;21.17;4.47;;;;;;;;;;6376049;22;20021;-78
2021/03/14 06:17:51;;;;;;;24.20;4.13;;;;;;;;;;6350039;22;20006;-77
2021/03/14 06:20:34;;;;;;;21.00;4.63;;;;;;;;;;6354865;22;20056;-78
2021/03/14 06:23:07;;;;;;;27.27;4.90;;;;;;;;;;6372751;22;20384;-78
2021/03/14 06:25:33;;;;;;;23.47;5.10;;;;;;;;;;6347747;22;20006;-78
2021/03/14 06:27:59;;;;;;;22.87;5.43;;;;;;;;;;6346002;22;20082;-78
2021/03/14 06:30:27;;;;;;;27.00;5.10;;;;;;;;;;6346554;22;20093;-78
2021/03/14 06:33:08;;;;;;;31.33;4.90;;;;;;;;;;6372679;22;20009;-78
2021/03/14 06:35:38;;;;;;;20.70;3.70;;;;;;;;;;6372692;22;20022;-79
2021/03/14 06:38:23;;;;;;;22.93;5.13;;;;;;;;;;6375308;22;20320;-77
2021/03/14 06:40:50;;;;;;;32.20;5.78;;;;;;;;;;6374202;22;19995;-79
2021/03/14 06:43:16;;;;;;;18.03;4.43;;;;;;;;;;6376494;22;19998;-77
2021/03/14 06:45:43;;;;;;;19.40;4.70;;;;;;;;;;6347160;22;20014;-78
2021/03/14 06:48:10;;;;;;;22.37;4.10;;;;;;;;;;6377431;22;19994;-77
2021/03/14 06:50:39;;;;;;;32.63;5.10;;;;;;;;;;6379683;22;20037;-77
2021/03/14 06:53:06;;;;;;;22.17;4.20;;;;;;;;;;6379687;22;20301;-77
2021/03/14 06:55:32;;;;;;;24.20;4.50;;;;;;;;;;6384214;22;19999;-77
2021/03/14 06:58:18;;;;;;;28.10;4.40;;;;;;;;;;6373482;22;20006;-79
2021/03/14 07:01:03;;;;;;;27.00;4.70;;;;;;;;;;6372749;22;20010;-78
2021/03/14 07:03:29;;;;;;;29.57;5.50;;;;;;;;;;6371724;22;20006;-78
2021/03/14 07:06:15;;;;;;;23.90;4.30;;;;;;;;;;6346510;22;20010;-79
2021/03/14 07:08:41;;;;;;;18.70;3.97;;;;;;;;;;6372803;22;20006;-78
2021/03/14 07:11:08;;;;;;;18.50;5.03;;;;;;;;;;6373054;22;20014;-78
2021/03/14 07:13:35;;;;;;;23.20;4.63;;;;;;;;;;6346517;22;20075;-78
2021/03/14 07:16:01;;;;;;;29.47;4.63;;;;;;;;;;6345745;22;20041;-79
2021/03/14 07:18:27;;;;;;;20.33;4.80;;;;;;;;;;6345773;22;20012;-79
2021/03/14 07:20:53;;;;;;;22.57;4.43;;;;;;;;;;6347414;22;20010;-78
2021/03/14 07:23:32;;;;;;;26.90;4.53;;;;;;;;;;6348858;22;20117;-77
2021/03/14 07:25:58;;;;;;;13.30;2.77;;;;;;;;;;6373452;22;20309;-77
2021/03/14 07:28:25;;;;;;;15.87;2.70;;;;;;;;;;6375701;22;20350;-77
2021/03/14 07:30:52;;;;;;;9.23;2.07;;;;;;;;;;6380404;22;20018;-76
2021/03/14 07:33:18;;;;;;;12.73;2.50;;;;;;;;;;6371928;22;20136;-79
2021/03/14 07:35:45;;;;;;;16.73;2.70;;;;;;;;;;6371951;22;20048;-78
2021/03/14 07:38:12;;;;;;;14.13;2.87;;;;;;;;;;6345517;22;20014;-78
2021/03/14 07:40:38;;;;;;;18.33;2.40;;;;;;;;;;6371545;22;20032;-78
2021/03/14 07:43:05;;;;;;;19.97;3.10;;;;;;;;;;6346117;22;20029;-78
2021/03/14 07:45:32;;;;;;;28.80;4.80;;;;;;;;;;6345495;22;20010;-77
2021/03/14 07:47:59;;;;;;;21.20;3.50;;;;;;;;;;6371592;22;20402;-78
2021/03/14 07:50:25;;;;;;;21.90;4.20;;;;;;;;;;6372320;22;20053;-78
2021/03/14 07:52:52;;;;;;;26.87;3.63;;;;;;;;;;6374288;22;20028;-78
2021/03/14 07:55:19;;;;;;;22.60;3.57;;;;;;;;;;6374401;22;20084;-79
2021/03/14 07:57:46;;;;;;;28.37;3.80;;;;;;;;;;6346340;22;20013;-77
2021/03/14 08:00:31;;;;;;;24.67;3.93;;;;;;;;;;6372418;22;20040;-78
2021/03/14 08:02:58;;;;;;;21.08;3.30;;;;;;;;;;6372114;22;20002;-78
2021/03/14 08:05:40;;;;;;;28.80;4.30;;;;;;;;;;6371594;22;20061;-78
2021/03/14 08:08:07;;;;;;;26.50;4.43;;;;;;;;;;6372099;22;20007;-78
2021/03/14 08:10:43;;;;;;;28.50;4.23;;;;;;;;;;6346087;22;20423;-79
2021/03/14 08:13:28;;;;;;;13.07;2.43;;;;;;;;;;6370618;22;20002;-79
2021/03/14 08:16:00;;;;;;;21.77;3.00;;;;;;;;;;6370896;22;20006;-78
2021/03/14 08:18:38;;;;;;;31.80;4.20;;;;;;;;;;6372901;22;20062;-78
2021/03/14 08:21:05;;;;;;;19.43;2.77;;;;;;;;;;6373286;22;20043;-77
2021/03/14 08:23:42;;;;;;;22.23;3.00;;;;;;;;;;6372947;22;20008;-79
2021/03/14 08:26:21;;;;;;;25.10;4.93;;;;;;;;;;6376931;22;20020;-77
2021/03/14 08:28:53;;;;;;;25.13;3.10;;;;;;;;;;6378165;22;20086;-79
2021/03/14 08:31:38;;;;;;;24.27;3.47;;;;;;;;;;6372489;22;19998;-80
2021/03/14 08:34:04;;;;;;;25.55;3.65;;;;;;;;;;6371452;22;20017;-78
2021/03/14 08:36:40;;;;;;;23.93;3.83;;;;;;;;;;6374764;22;20005;-78
2021/03/14 08:39:08;;;;;;;19.70;3.67;;;;;;;;;;6377373;22;20512;-79
2021/03/14 08:41:36;;;;;;;27.43;3.43;;;;;;;;;;6377674;22;20021;-77
2021/03/14 08:44:11;;;;;;;22.47;3.80;;;;;;;;;;6380806;22;20010;-78
2021/03/14 08:46:46;;;;;;;30.60;3.97;;;;;;;;;;6373740;22;19994;-77
2021/03/14 08:49:16;;;;;;;23.73;3.77;;;;;;;;;;6385006;22;20018;-77
2021/03/14 08:51:42;;;;;;;26.83;3.50;;;;;;;;;;6358419;22;20003;-77
2021/03/14 08:54:08;;;;;;;38.87;3.93;;;;;;;;;;6384185;22;20030;-77
2021/03/14 08:56:35;;;;;;;22.93;3.43;;;;;;;;;;6360808;22;20007;-78
2021/03/14 08:59:08;;;;;;;29.23;5.03;;;;;;;;;;6388389;22;20010;-78
2021/03/14 09:01:34;;;;;;;23.33;3.23;;;;;;;;;;6386087;22;20002;-78
2021/03/14 09:04:13;;;;;;;30.83;4.93;;;;;;;;;;6383602;22;20596;-78
2021/03/14 09:06:40;;;;;;;26.27;3.97;;;;;;;;;;6385348;22;20009;-77
2021/03/14 09:09:10;;;;;;;26.80;3.83;;;;;;;;;;6357415;22;19998;-78
2021/03/14 09:11:39;;;;;;;35.87;4.27;;;;;;;;;;6380454;22;20022;-78
2021/03/14 09:14:38;;;;;;;19.03;3.67;;;;;;;;;;6375974;22;20312;-78
2021/03/14 09:17:06;;;;;;;24.60;2.43;;;;;;;;;;6282444;22;20029;-77
2021/03/14 09:19:36;;;;;;;17.13;3.40;;;;;;;;;;6380697;22;20010;-78
2021/03/14 09:22:07;;;;;;;25.40;3.40;;;;;;;;;;6375293;22;20030;-77
2021/03/14 09:24:33;;;;;;;18.27;3.47;;;;;;;;;;6375510;22;20012;-78
2021/03/14 09:27:09;;;;;;;18.87;3.43;;;;;;;;;;6376912;22;20022;-78
2021/03/14 09:29:36;;;;;;;23.30;3.93;;;;;;;;;;6376313;22;20022;-78
2021/03/14 09:32:02;;;;;;;21.53;3.60;;;;;;;;;;6350018;22;20009;-78
2021/03/14 09:34:30;;;;;;;18.97;3.00;;;;;;;;;;6376084;22;20066;-77
2021/03/14 09:36:56;;;;;;;23.10;3.20;;;;;;;;;;6378144;22;20094;-77
2021/03/14 09:39:26;;;;;;;21.43;3.70;;;;;;;;;;6376835;22;20003;-77
2021/03/14 09:41:52;;;;;;;17.93;2.77;;;;;;;;;;6377465;22;20017;-78
2021/03/14 09:44:18;;;;;;;28.17;4.07;;;;;;;;;;6379769;22;20030;-79
2021/03/14 09:47:01;;;;;;;24.10;2.50;;;;;;;;;;6377577;22;20305;-80
2021/03/14 09:49:27;;;;;;;23.77;4.10;;;;;;;;;;6353846;22;20328;-80
2021/03/14 09:51:57;;;;;;;24.80;3.13;;;;;;;;;;6380023;22;20025;-77
2021/03/14 09:54:23;;;;;;;26.47;5.27;;;;;;;;;;6384082;22;20484;-77
2021/03/14 09:56:54;;;;;;;22.30;3.13;;;;;;;;;;6361729;22;20020;-78
2021/03/14 09:59:24;;;;;;;18.57;3.40;;;;;;;;;;6381463;22;20420;-78
2021/03/14 10:01:51;;;;;;;32.63;3.63;;;;;;;;;;6374986;22;20419;-78
2021/03/14 10:04:17;;;;;;;22.83;3.53;;;;;;;;;;6374847;22;20344;-79
2021/03/14 10:06:43;;;;;;;29.07;3.67;;;;;;;;;;6377943;22;20026;-78
2021/03/14 10:09:23;;;;;;;21.43;2.60;;;;;;;;;;6354666;22;20405;-79
2021/03/14 10:11:49;;;;;;;24.03;3.77;;;;;;;;;;6358701;22;20010;-80
2021/03/14 10:14:17;;;;;;;28.27;3.23;;;;;;;;;;6355108;22;20025;-78
2021/03/14 10:16:43;;;;;;;22.73;3.60;;;;;;;;;;6384296;22;19998;-79
2021/03/14 10:19:09;;;;;;;19.40;3.77;;;;;;;;;;6357367;22;20097;-79
2021/03/14 10:21:35;;;;;;;19.23;2.40;;;;;;;;;;6356452;22;20424;-79
2021/03/14 10:24:21;;;;;;;23.30;4.53;;;;;;;;;;6355631;22;20457;-79
2021/03/14 10:27:00;;;;;;;26.80;4.20;;;;;;;;;;6380485;22;20015;-80
2021/03/14 10:29:34;;;;;;;21.07;4.27;;;;;;;;;;6382374;22;20075;-80
2021/03/14 10:32:01;;;;;;;18.43;3.53;;;;;;;;;;6384825;22;19991;-81
2021/03/14 10:34:27;;;;;;;18.87;2.97;;;;;;;;;;6358911;22;20022;-80
2021/03/14 10:36:54;;;;;;;15.27;2.03;;;;;;;;;;6382034;22;20007;-80
2021/03/14 10:39:27;;;;;;;22.20;3.60;;;;;;;;;;6384261;22;19998;-80
2021/03/14 10:41:53;;;;;;;18.67;3.23;;;;;;;;;;6382695;22;20006;-80
2021/03/14 10:44:20;;;;;;;15.70;3.57;;;;;;;;;;6357691;22;20010;-80
2021/03/14 10:46:51;;;;;;;19.40;2.87;;;;;;;;;;6389218;22;20029;-80
2021/03/14 10:49:16;;;;;;;20.20;3.33;;;;;;;;;;6387711;22;20308;-80
2021/03/14 10:51:43;;;;;;;28.30;4.03;;;;;;;;;;6381055;22;19998;-79
2021/03/14 10:54:11;;;;;;;19.10;4.17;;;;;;;;;;6383339;22;20014;-79
2021/03/14 10:56:39;;;;;;;24.93;3.47;;;;;;;;;;6385747;22;20044;-78
2021/03/14 10:59:05;;;;;;;18.50;3.00;;;;;;;;;;6387875;22;19998;-80
2021/03/14 11:01:40;;;;;;;22.43;3.20;;;;;;;;;;6389293;22;20010;-79
2021/03/14 11:04:06;;;;;;;;;;;;;;;;;;6390622;22;20037;-79
2021/03/14 11:06:32;;;;;;;21.37;3.30;;;;;;;;;;6364660;22;19898;-79
2021/03/14 11:09:09;;;;;;;23.63;3.60;;;;;;;;;;6366428;22;19995;-79
2021/03/14 11:11:51;;;;;;;26.70;4.03;;;;;;;;;;6354267;22;20006;-79
2021/03/14 11:14:35;;;;;;;28.83;4.07;;;;;;;;;;6387085;22;20059;-79
2021/03/14 11:17:07;;;;;;;31.53;4.47;;;;;;;;;;6389188;22;20354;-80
2021/03/14 11:19:33;;;;;;;33.63;4.70;;;;;;;;;;6385274;22;20002;-79
2021/03/14 11:22:00;;;;;;;24.60;4.03;;;;;;;;;;6390206;22;20066;-80
2021/03/14 11:24:26;;;;;;;16.90;3.17;;;;;;;;;;6368416;22;20009;-79
2021/03/14 11:26:52;;;;;;;20.33;3.17;;;;;;;;;;6368799;22;20016;-80
2021/03/14 11:29:18;;;;;;;25.73;4.80;;;;;;;;;;6368880;22;20018;-79
2021/03/14 11:31:44;;;;;;;27.00;3.80;;;;;;;;;;6370973;22;20007;-79
2021/03/14 11:34:10;;;;;;;25.93;3.33;;;;;;;;;;6372129;22;20009;-79
2021/03/14 11:36:36;;;;;;;27.30;3.80;;;;;;;;;;6391649;22;20006;-79
2021/03/14 11:39:03;;;;;;;26.20;3.53;;;;;;;;;;6394166;22;19998;-78
2021/03/14 11:41:31;;;;;;;26.33;3.93;;;;;;;;;;6388747;22;19994;-78
2021/03/14 11:43:57;;;;;;;15.50;3.00;;;;;;;;;;6391609;22;20034;-78
2021/03/14 11:46:23;;;;;;;19.23;3.70;;;;;;;;;;6364183;22;20018;-79
2021/03/14 11:48:49;;;;;;;26.83;4.07;;;;;;;;;;6358990;22;20006;-78
2021/03/14 11:51:15;;;;;;;26.97;3.57;;;;;;;;;;6353753;22;20020;-79
2021/03/14 11:53:41;;;;;;;25.30;4.27;;;;;;;;;;6377958;22;20071;-80
2021/03/14 11:56:07;;;;;;;23.00;4.00;;;;;;;;;;6351865;22;20035;-78
2021/03/14 11:58:33;;;;;;;26.63;4.93;;;;;;;;;;6353222;22;20010;-78
2021/03/14 12:01:00;;;;;;;24.27;3.43;;;;;;;;;;6380870;22;20002;-78
2021/03/14 12:03:26;;;;;;;22.73;3.47;;;;;;;;;;6355868;22;20011;-78
2021/03/14 12:05:52;;;;;;;21.07;3.77;;;;;;;;;;6378638;22;20018;-79
2021/03/14 12:08:18;;;;;;;23.93;3.43;;;;;;;;;;6352841;22;20006;-79
2021/03/14 12:10:44;;;;;;;25.40;3.27;;;;;;;;;;6378814;22;20002;-79
2021/03/14 12:13:10;;;;;;;28.10;4.00;;;;;;;;;;6353007;22;20432;-79
2021/03/14 12:15:36;;;;;;;30.33;3.63;;;;;;;;;;6384055;22;20006;-80
2021/03/14 12:18:02;;;;;;;23.80;2.90;;;;;;;;;;6358910;22;20013;-79
2021/03/14 12:20:28;;;;;;;26.13;4.50;;;;;;;;;;6363665;22;20010;-79
2021/03/14 12:22:54;;;;;;;23.50;3.53;;;;;;;;;;6358782;22;20003;-79
2021/03/14 12:25:20;;;;;;;22.27;3.83;;;;;;;;;;6387362;22;20018;-80
2021/03/14 12:27:46;;;;;;;21.00;3.87;;;;;;;;;;6360040;22;20067;-79
2021/03/14 12:30:13;;;;;;;22.07;3.67;;;;;;;;;;6367941;22;20101;-79
2021/03/14 12:32:39;;;;;;;21.73;3.93;;;;;;;;;;6365444;22;20050;-79
2021/03/14 12:35:06;;;;;;;23.07;4.57;;;;;;;;;;6366734;22;20018;-78
2021/03/14 12:37:32;;;;;;;25.10;4.67;;;;;;;;;;6366570;22;20040;-78
2021/03/14 12:39:58;;;;;;;28.10;4.43;;;;;;;;;;6360946;22;19995;-77
2021/03/14 12:42:24;;;;;;;29.50;5.53;;;;;;;;;;6362643;22;20033;-78
2021/03/14 12:44:50;;;;;;;22.63;4.07;;;;;;;;;;6388903;22;20022;-79
2021/03/14 12:47:17;;;;;;;19.57;4.30;;;;;;;;;;6366700;22;19987;-77
2021/03/14 12:49:43;;;;;;;26.85;4.05;;;;;;;;;;6393396;22;19994;-78
2021/03/14 12:52:09;;;;;;;27.33;4.20;;;;;;;;;;6366894;22;20010;-79
2021/03/14 12:54:35;;;;;;;23.88;4.95;;;;;;;;;;6370837;22;20037;-79
2021/03/14 12:57:01;;;;;;;27.57;4.53;;;;;;;;;;6392992;22;20010;-78
2021/03/14 12:59:27;;;;;;;26.37;5.07;;;;;;;;;;6391695;22;20003;-78
2021/03/14 13:01:53;;;;;;;22.55;3.55;;;;;;;;;;6390411;22;19998;-78
2021/03/14 13:04:19;;;;;;;29.77;3.87;;;;;;;;;;6391626;22;20009;-79
2021/03/14 13:06:45;;;;;;;30.50;4.00;;;;;;;;;;6391299;22;20002;-78
2021/03/14 13:09:11;;;;;;;23.30;4.17;;;;;;;;;;6387430;22;20014;-79
2021/03/14 13:11:37;;;;;;;25.77;4.10;;;;;;;;;;6389728;22;20489;-78
2021/03/14 13:14:03;;;;;;;21.33;4.00;;;;;;;;;;6358832;22;20043;-79
2021/03/14 13:16:29;;;;;;;27.67;6.20;;;;;;;;;;6359129;22;20010;-79
2021/03/14 13:18:56;;;;;;;25.33;3.83;;;;;;;;;;6358371;22;20479;-79
2021/03/14 13:21:22;;;;;;;29.83;4.77;;;;;;;;;;6357807;22;20011;-78
2021/03/14 13:23:48;;;;;;;14.77;3.10;;;;;;;;;;6365644;22;19990;-79
2021/03/14 13:26:14;;;;;;;17.90;3.20;;;;;;;;;;6369063;22;20010;-78
2021/03/14 13:28:51;;;;;;;23.03;3.57;;;;;;;;;;6369490;22;20048;-79
2021/03/14 13:31:21;;;;;;;27.13;3.65;;;;;;;;;;6363549;22;20023;-79
2021/03/14 13:33:47;;;;;;;19.90;3.80;;;;;;;;;;6358320;22;20018;-78
2021/03/14 13:36:14;;;;;;;19.00;4.15;;;;;;;;;;6350030;22;20006;-79
2021/03/14 13:38:42;;;;;;;24.20;5.20;;;;;;;;;;6376167;22;20014;-79
2021/03/14 13:41:08;;;;;;;21.95;3.88;;;;;;;;;;6357002;22;20049;-81
2021/03/14 13:43:34;;;;;;;21.40;4.45;;;;;;;;;;6357321;22;20007;-79
2021/03/14 13:46:01;;;;;;;20.52;3.50;;;;;;;;;;6354705;22;20089;-79
2021/03/14 13:48:27;;;;;;;17.67;3.17;;;;;;;;;;6377768;22;20033;-79
2021/03/14 13:50:54;;;;;;;20.45;4.00;;;;;;;;;;6376998;22;20037;-79
2021/03/14 13:53:23;;;;;;;18.90;2.65;;;;;;;;;;6381024;22;20003;-80
2021/03/14 13:55:49;;;;;;;27.05;5.15;;;;;;;;;;6382857;22;20007;-79
2021/03/14 13:58:15;;;;;;;20.17;3.47;;;;;;;;;;6388119;22;20011;-78
2021/03/14 14:03:46;;;;;;;20.50;3.97;;;;;;;;;;6367724;22;20046;-80
2021/03/14 14:06:17;;;;;;;16.52;3.60;;;;;;;;;;6392547;22;19997;-80
2021/03/14 14:08:43;;;;;;;22.55;4.05;;;;;;;;;;6392784;22;20055;-80
2021/03/14 14:11:10;;;;;;;17.15;3.80;;;;;;;;;;6389002;22;20013;-80
2021/03/14 14:14:00;;;;;;;25.30;5.38;;;;;;;;;;6392530;22;20020;-81
2021/03/14 14:16:26;;;;;;;18.58;3.15;;;;;;;;;;6364763;22;19998;-81
2021/03/14 14:18:52;;;;;;;24.17;4.13;;;;;;;;;;6392057;22;20011;-81
2021/03/14 14:21:21;;;;;;;16.55;2.95;;;;;;;;;;6392660;22;20011;-82
2021/03/14 14:26:58;;;;;;;23.30;3.58;;;;;;;;;;6362582;22;20025;-83
2021/03/14 14:35:47;;;;;;;34.13;4.90;;;;;;;;;;6377023;22;20446;-82
2021/03/14 14:38:34;;;;;;;28.02;4.03;;;;;;;;;;6390504;22;20015;-82
2021/03/14 14:41:00;;;;;;;20.02;4.30;;;;;;;;;;6394564;22;20063;-82
2021/03/14 14:53:50;;;;;;;19.17;4.05;;;;;;;;;;6372898;22;20029;-81
2021/03/14 14:56:22;;;;;;;18.63;3.92;;;;;;;;;;6393827;22;19999;-82
2021/03/14 14:58:48;;;;;;;19.58;4.05;;;;;;;;;;6392685;22;20020;-82